sensor_id;sensor_type;location;lat;lon;timestamp;P1;durP1;ratioP1;P2;durP2;ratioP2
3523;SDS011;1776;53.330;11.498;2024-03-07T00:02:08;24.90;;;12.77;;
3523;SDS011;1776;53.330;11.498;2024-03-07T00:04:34;19.67;;;10.87;;
3523;SDS011;1776;53.330;11.498;2024-03-07T00:07:01;22.03;;;12.20;;
3523;SDS011;1776;53.330;11.498;2024-03-07T00:09:28;27.23;;;13.17;;
3523;SDS011;1776;53.330;11.498;2024-03-07T00:11:54;16.20;;;10.70;;
3523;SDS011;1776;53.330;11.498;2024-03-07T00:14:19;17.73;;;10.03;;
3523;SDS011;1776;53.330;11.498;2024-03-07T00:16:45;20.67;;;11.00;;
3523;SDS011;1776;53.330;11.498;2024-03-07T00:19:11;19.07;;;10.43;;
3523;SDS011;1776;53.330;11.498;2024-03-07T00:21:38;19.97;;;11.03;;
3523;SDS011;1776;53.330;11.498;2024-03-07T00:24:04;20.67;;;11.37;;
3523;SDS011;1776;53.330;11.498;2024-03-07T00:26:30;19.67;;;10.33;;
3523;SDS011;1776;53.330;11.498;2024-03-07T00:28:55;24.93;;;11.67;;
3523;SDS011;1776;53.330;11.498;2024-03-07T00:31:20;17.70;;;12.20;;
3523;SDS011;1776;53.330;11.498;2024-03-07T00:33:46;20.93;;;11.20;;
3523;SDS011;1776;53.330;11.498;2024-03-07T00:36:11;24.80;;;12.27;;
3523;SDS011;1776;53.330;11.498;2024-03-07T00:38:37;20.20;;;11.27;;
3523;SDS011;1776;53.330;11.498;2024-03-07T00:41:02;19.10;;;12.23;;
3523;SDS011;1776;53.330;11.498;2024-03-07T00:43:28;26.23;;;11.50;;
3523;SDS011;1776;53.330;11.498;2024-03-07T00:45:53;21.77;;;12.43;;
3523;SDS011;1776;53.330;11.498;2024-03-07T00:48:18;19.77;;;12.20;;
3523;SDS011;1776;53.330;11.498;2024-03-07T00:50:43;23.90;;;12.43;;
3523;SDS011;1776;53.330;11.498;2024-03-07T00:53:09;22.77;;;12.83;;
3523;SDS011;1776;53.330;11.498;2024-03-07T00:55:35;25.20;;;12.50;;
3523;SDS011;1776;53.330;11.498;2024-03-07T00:58:00;22.10;;;12.30;;
3523;SDS011;1776;53.330;11.498;2024-03-07T01:00:25;25.13;;;12.63;;
3523;SDS011;1776;53.330;11.498;2024-03-07T01:02:51;22.33;;;12.63;;
3523;SDS011;1776;53.330;11.498;2024-03-07T01:05:18;23.90;;;12.43;;
3523;SDS011;1776;53.330;11.498;2024-03-07T01:07:44;22.13;;;11.73;;
3523;SDS011;1776;53.330;11.498;2024-03-07T01:10:11;23.07;;;11.43;;
3523;SDS011;1776;53.330;11.498;2024-03-07T01:12:37;22.67;;;12.10;;
3523;SDS011;1776;53.330;11.498;2024-03-07T01:15:02;19.47;;;12.17;;
3523;SDS011;1776;53.330;11.498;2024-03-07T01:17:29;17.70;;;10.50;;
3523;SDS011;1776;53.330;11.498;2024-03-07T01:19:54;23.60;;;11.80;;
3523;SDS011;1776;53.330;11.498;2024-03-07T01:22:20;22.63;;;13.00;;
3523;SDS011;1776;53.330;11.498;2024-03-07T01:24:46;24.27;;;10.70;;
3523;SDS011;1776;53.330;11.498;2024-03-07T01:27:12;23.77;;;11.47;;
3523;SDS011;1776;53.330;11.498;2024-03-07T01:29:38;18.10;;;11.23;;
3523;SDS011;1776;53.330;11.498;2024-03-07T01:32:06;21.17;;;12.47;;
3523;SDS011;1776;53.330;11.498;2024-03-07T01:34:31;23.67;;;11.73;;
3523;SDS011;1776;53.330;11.498;2024-03-07T01:36:56;24.73;;;12.10;;
3523;SDS011;1776;53.330;11.498;2024-03-07T01:39:22;22.53;;;11.97;;
3523;SDS011;1776;53.330;11.498;2024-03-07T01:41:48;20.30;;;12.40;;
3523;SDS011;1776;53.330;11.498;2024-03-07T01:44:13;24.03;;;14.30;;
3523;SDS011;1776;53.330;11.498;2024-03-07T01:46:39;27.87;;;13.70;;
3523;SDS011;1776;53.330;11.498;2024-03-07T01:49:06;28.23;;;12.20;;
3523;SDS011;1776;53.330;11.498;2024-03-07T01:51:32;26.23;;;13.20;;
3523;SDS011;1776;53.330;11.498;2024-03-07T01:53:58;24.60;;;12.90;;
3523;SDS011;1776;53.330;11.498;2024-03-07T01:56:24;26.87;;;13.57;;
3523;SDS011;1776;53.330;11.498;2024-03-07T01:58:49;23.43;;;11.63;;
3523;SDS011;1776;53.330;11.498;2024-03-07T02:01:16;23.20;;;12.43;;
3523;SDS011;1776;53.330;11.498;2024-03-07T02:03:42;20.63;;;12.50;;
3523;SDS011;1776;53.330;11.498;2024-03-07T02:06:07;23.40;;;13.10;;
3523;SDS011;1776;53.330;11.498;2024-03-07T02:08:33;21.27;;;12.73;;
3523;SDS011;1776;53.330;11.498;2024-03-07T02:10:59;26.20;;;12.90;;
3523;SDS011;1776;53.330;11.498;2024-03-07T02:13:25;26.40;;;13.33;;
3523;SDS011;1776;53.330;11.498;2024-03-07T02:15:51;20.07;;;11.67;;
3523;SDS011;1776;53.330;11.498;2024-03-07T02:18:17;25.90;;;11.67;;
3523;SDS011;1776;53.330;11.498;2024-03-07T02:20:43;22.93;;;12.77;;
3523;SDS011;1776;53.330;11.498;2024-03-07T02:23:10;24.43;;;13.27;;
3523;SDS011;1776;53.330;11.498;2024-03-07T02:25:35;20.07;;;12.33;;
3523;SDS011;1776;53.330;11.498;2024-03-07T02:28:02;18.07;;;11.83;;
3523;SDS011;1776;53.330;11.498;2024-03-07T02:30:29;20.67;;;13.13;;
3523;SDS011;1776;53.330;11.498;2024-03-07T02:32:57;25.67;;;12.63;;
3523;SDS011;1776;53.330;11.498;2024-03-07T02:35:24;24.20;;;12.80;;
3523;SDS011;1776;53.330;11.498;2024-03-07T02:37:49;28.00;;;12.63;;
3523;SDS011;1776;53.330;11.498;2024-03-07T02:40:15;23.30;;;14.20;;
3523;SDS011;1776;53.330;11.498;2024-03-07T02:42:41;23.03;;;11.77;;
3523;SDS011;1776;53.330;11.498;2024-03-07T02:45:06;20.90;;;12.30;;
3523;SDS011;1776;53.330;11.498;2024-03-07T02:47:32;22.40;;;11.97;;
3523;SDS011;1776;53.330;11.498;2024-03-07T02:49:57;18.70;;;12.13;;
3523;SDS011;1776;53.330;11.498;2024-03-07T02:52:22;19.77;;;11.93;;
3523;SDS011;1776;53.330;11.498;2024-03-07T02:54:48;22.83;;;13.83;;
3523;SDS011;1776;53.330;11.498;2024-03-07T02:57:13;24.27;;;12.17;;
3523;SDS011;1776;53.330;11.498;2024-03-07T02:59:38;18.57;;;10.63;;
3523;SDS011;1776;53.330;11.498;2024-03-07T03:02:03;20.80;;;12.10;;
3523;SDS011;1776;53.330;11.498;2024-03-07T03:04:29;20.33;;;11.73;;
3523;SDS011;1776;53.330;11.498;2024-03-07T03:06:54;24.40;;;13.50;;
3523;SDS011;1776;53.330;11.498;2024-03-07T03:09:19;25.20;;;13.63;;
3523;SDS011;1776;53.330;11.498;2024-03-07T03:11:46;20.87;;;11.77;;
3523;SDS011;1776;53.330;11.498;2024-03-07T03:14:12;18.93;;;12.80;;
3523;SDS011;1776;53.330;11.498;2024-03-07T03:16:42;26.90;;;12.53;;
3523;SDS011;1776;53.330;11.498;2024-03-07T03:19:08;19.10;;;10.90;;
3523;SDS011;1776;53.330;11.498;2024-03-07T03:21:34;24.03;;;11.87;;
3523;SDS011;1776;53.330;11.498;2024-03-07T03:23:59;25.37;;;11.43;;
3523;SDS011;1776;53.330;11.498;2024-03-07T03:26:25;20.80;;;11.17;;
3523;SDS011;1776;53.330;11.498;2024-03-07T03:28:51;25.40;;;12.33;;
3523;SDS011;1776;53.330;11.498;2024-03-07T03:31:17;18.57;;;12.10;;
3523;SDS011;1776;53.330;11.498;2024-03-07T03:33:42;19.67;;;11.80;;
3523;SDS011;1776;53.330;11.498;2024-03-07T03:36:08;18.50;;;10.97;;
3523;SDS011;1776;53.330;11.498;2024-03-07T03:38:33;21.20;;;11.93;;
3523;SDS011;1776;53.330;11.498;2024-03-07T03:40:59;25.07;;;11.80;;
3523;SDS011;1776;53.330;11.498;2024-03-07T03:43:24;16.17;;;10.83;;
3523;SDS011;1776;53.330;11.498;2024-03-07T03:45:49;21.10;;;10.77;;
3523;SDS011;1776;53.330;11.498;2024-03-07T03:48:14;17.77;;;12.00;;
3523;SDS011;1776;53.330;11.498;2024-03-07T03:50:40;16.03;;;9.57;;
3523;SDS011;1776;53.330;11.498;2024-03-07T03:53:05;18.47;;;11.80;;
3523;SDS011;1776;53.330;11.498;2024-03-07T03:55:32;23.10;;;11.60;;
3523;SDS011;1776;53.330;11.498;2024-03-07T03:57:58;19.63;;;12.87;;
3523;SDS011;1776;53.330;11.498;2024-03-07T04:00:23;23.13;;;12.20;;
3523;SDS011;1776;53.330;11.498;2024-03-07T04:02:49;23.50;;;11.47;;
3523;SDS011;1776;53.330;11.498;2024-03-07T04:05:16;25.63;;;13.90;;
3523;SDS011;1776;53.330;11.498;2024-03-07T04:07:43;26.70;;;12.70;;
3523;SDS011;1776;53.330;11.498;2024-03-07T04:10:08;28.33;;;11.90;;
3523;SDS011;1776;53.330;11.498;2024-03-07T04:12:35;19.63;;;12.00;;
3523;SDS011;1776;53.330;11.498;2024-03-07T04:15:05;20.43;;;11.63;;
3523;SDS011;1776;53.330;11.498;2024-03-07T04:17:34;19.67;;;10.90;;
3523;SDS011;1776;53.330;11.498;2024-03-07T04:20:01;23.63;;;10.97;;
3523;SDS011;1776;53.330;11.498;2024-03-07T04:22:30;19.73;;;12.67;;
3523;SDS011;1776;53.330;11.498;2024-03-07T04:24:55;19.90;;;12.40;;
3523;SDS011;1776;53.330;11.498;2024-03-07T04:27:21;21.10;;;11.97;;
3523;SDS011;1776;53.330;11.498;2024-03-07T04:29:47;17.60;;;11.50;;
3523;SDS011;1776;53.330;11.498;2024-03-07T04:32:13;20.20;;;11.67;;
3523;SDS011;1776;53.330;11.498;2024-03-07T04:34:38;22.70;;;12.23;;
3523;SDS011;1776;53.330;11.498;2024-03-07T04:37:04;20.67;;;11.60;;
3523;SDS011;1776;53.330;11.498;2024-03-07T04:39:29;20.10;;;11.40;;
3523;SDS011;1776;53.330;11.498;2024-03-07T04:42:06;19.60;;;11.73;;
3523;SDS011;1776;53.330;11.498;2024-03-07T04:44:33;19.00;;;11.13;;
3523;SDS011;1776;53.330;11.498;2024-03-07T04:47:00;20.50;;;10.10;;
3523;SDS011;1776;53.330;11.498;2024-03-07T04:49:27;15.67;;;10.93;;
3523;SDS011;1776;53.330;11.498;2024-03-07T04:51:53;21.90;;;10.27;;
3523;SDS011;1776;53.330;11.498;2024-03-07T04:54:20;23.70;;;12.20;;
3523;SDS011;1776;53.330;11.498;2024-03-07T04:56:46;20.77;;;11.40;;
3523;SDS011;1776;53.330;11.498;2024-03-07T04:59:12;24.10;;;11.23;;
3523;SDS011;1776;53.330;11.498;2024-03-07T05:01:38;18.00;;;10.80;;
3523;SDS011;1776;53.330;11.498;2024-03-07T05:04:05;22.13;;;11.93;;
3523;SDS011;1776;53.330;11.498;2024-03-07T05:06:30;20.70;;;10.93;;
3523;SDS011;1776;53.330;11.498;2024-03-07T05:08:58;20.50;;;10.70;;
3523;SDS011;1776;53.330;11.498;2024-03-07T05:11:25;27.70;;;12.30;;
3523;SDS011;1776;53.330;11.498;2024-03-07T05:13:50;19.50;;;12.60;;
3523;SDS011;1776;53.330;11.498;2024-03-07T05:16:15;24.17;;;12.00;;
3523;SDS011;1776;53.330;11.498;2024-03-07T05:18:42;21.13;;;11.50;;
3523;SDS011;1776;53.330;11.498;2024-03-07T05:21:08;18.13;;;10.20;;
3523;SDS011;1776;53.330;11.498;2024-03-07T05:23:52;19.97;;;10.93;;
3523;SDS011;1776;53.330;11.498;2024-03-07T05:26:17;19.30;;;10.77;;
3523;SDS011;1776;53.330;11.498;2024-03-07T05:28:43;22.00;;;11.47;;
3523;SDS011;1776;53.330;11.498;2024-03-07T05:31:08;19.00;;;10.90;;
3523;SDS011;1776;53.330;11.498;2024-03-07T05:33:37;24.50;;;12.03;;
3523;SDS011;1776;53.330;11.498;2024-03-07T05:36:03;20.30;;;10.90;;
3523;SDS011;1776;53.330;11.498;2024-03-07T05:38:39;21.93;;;11.27;;
3523;SDS011;1776;53.330;11.498;2024-03-07T05:41:11;20.07;;;12.10;;
3523;SDS011;1776;53.330;11.498;2024-03-07T05:43:37;14.90;;;10.03;;
3523;SDS011;1776;53.330;11.498;2024-03-07T05:46:03;20.60;;;12.40;;
3523;SDS011;1776;53.330;11.498;2024-03-07T05:48:29;25.10;;;11.47;;
3523;SDS011;1776;53.330;11.498;2024-03-07T05:50:54;25.17;;;12.93;;
3523;SDS011;1776;53.330;11.498;2024-03-07T05:53:19;19.97;;;12.03;;
3523;SDS011;1776;53.330;11.498;2024-03-07T05:55:44;19.67;;;12.30;;
3523;SDS011;1776;53.330;11.498;2024-03-07T05:58:10;21.57;;;12.60;;
3523;SDS011;1776;53.330;11.498;2024-03-07T06:00:36;22.17;;;12.90;;
3523;SDS011;1776;53.330;11.498;2024-03-07T06:03:03;24.63;;;13.07;;
3523;SDS011;1776;53.330;11.498;2024-03-07T06:05:29;26.10;;;16.70;;
3523;SDS011;1776;53.330;11.498;2024-03-07T06:07:55;26.53;;;15.60;;
3523;SDS011;1776;53.330;11.498;2024-03-07T06:10:21;35.37;;;16.83;;
3523;SDS011;1776;53.330;11.498;2024-03-07T06:12:49;41.03;;;18.43;;
3523;SDS011;1776;53.330;11.498;2024-03-07T06:15:15;42.03;;;20.67;;
3523;SDS011;1776;53.330;11.498;2024-03-07T06:17:40;33.67;;;19.70;;
3523;SDS011;1776;53.330;11.498;2024-03-07T06:20:05;26.07;;;17.20;;
3523;SDS011;1776;53.330;11.498;2024-03-07T06:22:45;25.47;;;16.20;;
3523;SDS011;1776;53.330;11.498;2024-03-07T06:25:11;22.87;;;14.10;;
3523;SDS011;1776;53.330;11.498;2024-03-07T06:27:44;22.97;;;13.37;;
3523;SDS011;1776;53.330;11.498;2024-03-07T06:30:13;22.23;;;14.03;;
3523;SDS011;1776;53.330;11.498;2024-03-07T06:32:41;20.80;;;13.20;;
3523;SDS011;1776;53.330;11.498;2024-03-07T06:35:06;24.80;;;12.50;;
3523;SDS011;1776;53.330;11.498;2024-03-07T06:37:32;19.57;;;11.87;;
3523;SDS011;1776;53.330;11.498;2024-03-07T06:39:57;21.53;;;12.90;;
3523;SDS011;1776;53.330;11.498;2024-03-07T06:42:22;31.40;;;13.60;;
3523;SDS011;1776;53.330;11.498;2024-03-07T06:44:48;26.33;;;13.70;;
3523;SDS011;1776;53.330;11.498;2024-03-07T06:47:13;30.63;;;13.30;;
3523;SDS011;1776;53.330;11.498;2024-03-07T06:49:38;24.40;;;13.50;;
3523;SDS011;1776;53.330;11.498;2024-03-07T06:52:04;21.53;;;12.57;;
3523;SDS011;1776;53.330;11.498;2024-03-07T06:54:30;22.77;;;13.57;;
3523;SDS011;1776;53.330;11.498;2024-03-07T06:56:56;29.77;;;13.30;;
3523;SDS011;1776;53.330;11.498;2024-03-07T06:59:21;20.53;;;13.40;;
3523;SDS011;1776;53.330;11.498;2024-03-07T07:01:47;21.87;;;13.20;;
3523;SDS011;1776;53.330;11.498;2024-03-07T07:04:12;18.83;;;11.73;;
3523;SDS011;1776;53.330;11.498;2024-03-07T07:06:40;25.53;;;14.13;;
3523;SDS011;1776;53.330;11.498;2024-03-07T07:09:08;21.60;;;12.60;;
3523;SDS011;1776;53.330;11.498;2024-03-07T07:11:34;21.50;;;13.03;;
3523;SDS011;1776;53.330;11.498;2024-03-07T07:13:59;24.30;;;14.23;;
3523;SDS011;1776;53.330;11.498;2024-03-07T07:16:27;18.27;;;12.03;;
3523;SDS011;1776;53.330;11.498;2024-03-07T07:18:54;18.90;;;12.73;;
3523;SDS011;1776;53.330;11.498;2024-03-07T07:21:20;22.23;;;12.63;;
3523;SDS011;1776;53.330;11.498;2024-03-07T07:23:46;26.00;;;14.70;;
3523;SDS011;1776;53.330;11.498;2024-03-07T07:26:11;24.13;;;14.20;;
3523;SDS011;1776;53.330;11.498;2024-03-07T07:28:36;26.53;;;13.30;;
3523;SDS011;1776;53.330;11.498;2024-03-07T07:31:02;23.63;;;12.97;;
3523;SDS011;1776;53.330;11.498;2024-03-07T07:33:27;28.90;;;15.00;;
3523;SDS011;1776;53.330;11.498;2024-03-07T07:35:52;27.97;;;14.70;;
3523;SDS011;1776;53.330;11.498;2024-03-07T07:38:18;21.13;;;13.03;;
3523;SDS011;1776;53.330;11.498;2024-03-07T07:40:43;19.50;;;13.80;;
3523;SDS011;1776;53.330;11.498;2024-03-07T07:43:09;24.93;;;13.60;;
3523;SDS011;1776;53.330;11.498;2024-03-07T07:45:38;26.47;;;13.20;;
3523;SDS011;1776;53.330;11.498;2024-03-07T07:48:04;24.30;;;13.53;;
3523;SDS011;1776;53.330;11.498;2024-03-07T07:50:30;23.30;;;14.70;;
3523;SDS011;1776;53.330;11.498;2024-03-07T07:52:56;27.03;;;13.87;;
3523;SDS011;1776;53.330;11.498;2024-03-07T07:55:25;21.97;;;13.70;;
3523;SDS011;1776;53.330;11.498;2024-03-07T07:57:53;23.63;;;13.53;;
3523;SDS011;1776;53.330;11.498;2024-03-07T08:00:21;26.93;;;14.37;;
3523;SDS011;1776;53.330;11.498;2024-03-07T08:02:55;30.10;;;14.70;;
3523;SDS011;1776;53.330;11.498;2024-03-07T08:05:22;23.83;;;14.30;;
3523;SDS011;1776;53.330;11.498;2024-03-07T08:07:51;23.73;;;14.20;;
3523;SDS011;1776;53.330;11.498;2024-03-07T08:10:18;22.93;;;13.63;;
3523;SDS011;1776;53.330;11.498;2024-03-07T08:12:44;28.83;;;13.60;;
3523;SDS011;1776;53.330;11.498;2024-03-07T08:15:13;24.80;;;14.53;;
3523;SDS011;1776;53.330;11.498;2024-03-07T08:17:40;26.10;;;14.97;;
3523;SDS011;1776;53.330;11.498;2024-03-07T08:20:07;22.87;;;13.90;;
3523;SDS011;1776;53.330;11.498;2024-03-07T08:22:36;25.13;;;14.57;;
3523;SDS011;1776;53.330;11.498;2024-03-07T08:25:02;28.63;;;15.70;;
3523;SDS011;1776;53.330;11.498;2024-03-07T08:27:34;28.80;;;15.77;;
3523;SDS011;1776;53.330;11.498;2024-03-07T08:29:59;26.10;;;14.47;;
3523;SDS011;1776;53.330;11.498;2024-03-07T08:32:24;27.67;;;13.87;;
3523;SDS011;1776;53.330;11.498;2024-03-07T08:34:50;20.33;;;13.17;;
3523;SDS011;1776;53.330;11.498;2024-03-07T08:37:16;31.87;;;14.00;;
3523;SDS011;1776;53.330;11.498;2024-03-07T08:39:41;28.47;;;15.97;;
3523;SDS011;1776;53.330;11.498;2024-03-07T08:42:06;26.30;;;16.37;;
3523;SDS011;1776;53.330;11.498;2024-03-07T08:44:32;23.53;;;15.63;;
3523;SDS011;1776;53.330;11.498;2024-03-07T08:46:57;30.23;;;13.90;;
3523;SDS011;1776;53.330;11.498;2024-03-07T08:49:22;24.33;;;15.03;;
3523;SDS011;1776;53.330;11.498;2024-03-07T08:51:48;28.60;;;16.70;;
3523;SDS011;1776;53.330;11.498;2024-03-07T08:54:13;25.63;;;15.60;;
3523;SDS011;1776;53.330;11.498;2024-03-07T08:56:39;28.73;;;16.33;;
3523;SDS011;1776;53.330;11.498;2024-03-07T08:59:04;30.00;;;16.50;;
3523;SDS011;1776;53.330;11.498;2024-03-07T09:01:29;29.60;;;15.27;;
3523;SDS011;1776;53.330;11.498;2024-03-07T09:03:54;26.30;;;15.83;;
3523;SDS011;1776;53.330;11.498;2024-03-07T09:06:21;28.00;;;16.03;;
3523;SDS011;1776;53.330;11.498;2024-03-07T09:08:47;26.70;;;16.07;;
3523;SDS011;1776;53.330;11.498;2024-03-07T09:11:12;33.70;;;15.90;;
3523;SDS011;1776;53.330;11.498;2024-03-07T09:13:37;24.67;;;15.33;;
3523;SDS011;1776;53.330;11.498;2024-03-07T09:16:04;26.73;;;15.53;;
3523;SDS011;1776;53.330;11.498;2024-03-07T09:18:30;25.17;;;15.30;;
3523;SDS011;1776;53.330;11.498;2024-03-07T09:20:55;30.57;;;16.87;;
3523;SDS011;1776;53.330;11.498;2024-03-07T09:23:20;30.20;;;16.77;;
3523;SDS011;1776;53.330;11.498;2024-03-07T09:25:46;27.50;;;17.80;;
3523;SDS011;1776;53.330;11.498;2024-03-07T09:28:11;26.17;;;16.07;;
3523;SDS011;1776;53.330;11.498;2024-03-07T09:30:36;28.07;;;15.70;;
3523;SDS011;1776;53.330;11.498;2024-03-07T09:33:03;27.00;;;16.63;;
3523;SDS011;1776;53.330;11.498;2024-03-07T09:35:29;29.70;;;14.70;;
3523;SDS011;1776;53.330;11.498;2024-03-07T09:37:54;34.27;;;17.17;;
3523;SDS011;1776;53.330;11.498;2024-03-07T09:40:19;26.47;;;15.77;;
3523;SDS011;1776;53.330;11.498;2024-03-07T09:42:49;26.33;;;14.27;;
3523;SDS011;1776;53.330;11.498;2024-03-07T09:45:18;36.00;;;17.47;;
3523;SDS011;1776;53.330;11.498;2024-03-07T09:47:46;27.93;;;15.87;;
3523;SDS011;1776;53.330;11.498;2024-03-07T09:50:16;28.97;;;17.80;;
3523;SDS011;1776;53.330;11.498;2024-03-07T09:52:47;30.67;;;17.60;;
3523;SDS011;1776;53.330;11.498;2024-03-07T09:55:14;32.10;;;16.73;;
3523;SDS011;1776;53.330;11.498;2024-03-07T09:57:40;36.00;;;16.57;;
3523;SDS011;1776;53.330;11.498;2024-03-07T10:00:07;29.93;;;15.83;;
3523;SDS011;1776;53.330;11.498;2024-03-07T10:02:34;33.93;;;15.70;;
3523;SDS011;1776;53.330;11.498;2024-03-07T10:05:02;27.93;;;17.73;;
3523;SDS011;1776;53.330;11.498;2024-03-07T10:07:31;31.30;;;17.40;;
3523;SDS011;1776;53.330;11.498;2024-03-07T10:09:56;30.43;;;16.73;;
3523;SDS011;1776;53.330;11.498;2024-03-07T10:12:24;29.17;;;16.80;;
3523;SDS011;1776;53.330;11.498;2024-03-07T10:14:50;28.60;;;17.07;;
3523;SDS011;1776;53.330;11.498;2024-03-07T10:17:16;30.00;;;16.40;;
3523;SDS011;1776;53.330;11.498;2024-03-07T10:19:43;29.97;;;18.27;;
3523;SDS011;1776;53.330;11.498;2024-03-07T10:22:11;23.80;;;15.10;;
3523;SDS011;1776;53.330;11.498;2024-03-07T10:24:37;28.43;;;17.40;;
3523;SDS011;1776;53.330;11.498;2024-03-07T10:27:03;26.53;;;16.47;;
3523;SDS011;1776;53.330;11.498;2024-03-07T10:29:29;27.90;;;16.10;;
3523;SDS011;1776;53.330;11.498;2024-03-07T10:31:54;36.87;;;18.63;;
3523;SDS011;1776;53.330;11.498;2024-03-07T10:34:20;29.43;;;16.27;;
3523;SDS011;1776;53.330;11.498;2024-03-07T10:36:47;22.77;;;14.70;;
3523;SDS011;1776;53.330;11.498;2024-03-07T10:39:12;27.63;;;15.90;;
3523;SDS011;1776;53.330;11.498;2024-03-07T10:41:44;27.17;;;16.00;;
3523;SDS011;1776;53.330;11.498;2024-03-07T10:44:24;29.50;;;16.53;;
3523;SDS011;1776;53.330;11.498;2024-03-07T10:46:54;29.73;;;15.10;;
3523;SDS011;1776;53.330;11.498;2024-03-07T10:49:21;24.13;;;14.87;;
3523;SDS011;1776;53.330;11.498;2024-03-07T10:51:58;30.13;;;16.77;;
3523;SDS011;1776;53.330;11.498;2024-03-07T10:54:46;29.00;;;16.27;;
3523;SDS011;1776;53.330;11.498;2024-03-07T11:00:21;26.53;;;15.43;;
3523;SDS011;1776;53.330;11.498;2024-03-07T11:03:08;26.83;;;13.47;;
3523;SDS011;1776;53.330;11.498;2024-03-07T11:05:34;30.30;;;15.43;;
3523;SDS011;1776;53.330;11.498;2024-03-07T11:08:00;30.63;;;15.63;;
3523;SDS011;1776;53.330;11.498;2024-03-07T11:10:36;24.90;;;14.17;;
3523;SDS011;1776;53.330;11.498;2024-03-07T11:13:02;24.17;;;16.00;;
3523;SDS011;1776;53.330;11.498;2024-03-07T11:15:29;23.03;;;14.43;;
3523;SDS011;1776;53.330;11.498;2024-03-07T11:17:57;23.60;;;13.83;;
3523;SDS011;1776;53.330;11.498;2024-03-07T11:20:24;28.80;;;14.13;;
3523;SDS011;1776;53.330;11.498;2024-03-07T11:26:09;23.43;;;12.77;;
3523;SDS011;1776;53.330;11.498;2024-03-07T11:28:36;22.37;;;14.50;;
3523;SDS011;1776;53.330;11.498;2024-03-07T11:34:11;19.17;;;12.70;;
3523;SDS011;1776;53.330;11.498;2024-03-07T11:36:42;20.50;;;13.10;;
3523;SDS011;1776;53.330;11.498;2024-03-07T11:42:07;22.40;;;14.70;;
3523;SDS011;1776;53.330;11.498;2024-03-07T11:44:33;21.97;;;13.53;;
3523;SDS011;1776;53.330;11.498;2024-03-07T11:47:00;22.27;;;13.30;;
3523;SDS011;1776;53.330;11.498;2024-03-07T11:49:33;16.37;;;13.07;;
3523;SDS011;1776;53.330;11.498;2024-03-07T11:52:02;24.10;;;13.33;;
3523;SDS011;1776;53.330;11.498;2024-03-07T11:54:36;18.80;;;12.10;;
3523;SDS011;1776;53.330;11.498;2024-03-07T11:57:02;20.23;;;12.53;;
3523;SDS011;1776;53.330;11.498;2024-03-07T11:59:37;21.20;;;13.47;;
3523;SDS011;1776;53.330;11.498;2024-03-07T12:02:04;21.93;;;13.70;;
3523;SDS011;1776;53.330;11.498;2024-03-07T12:04:29;19.10;;;12.60;;
3523;SDS011;1776;53.330;11.498;2024-03-07T12:06:55;23.20;;;13.60;;
3523;SDS011;1776;53.330;11.498;2024-03-07T12:09:20;22.60;;;14.17;;
3523;SDS011;1776;53.330;11.498;2024-03-07T12:11:49;25.67;;;14.07;;
3523;SDS011;1776;53.330;11.498;2024-03-07T12:14:18;18.57;;;12.13;;
3523;SDS011;1776;53.330;11.498;2024-03-07T12:16:46;19.77;;;12.67;;
3523;SDS011;1776;53.330;11.498;2024-03-07T12:19:12;24.67;;;12.30;;
3523;SDS011;1776;53.330;11.498;2024-03-07T12:21:37;17.43;;;11.93;;
3523;SDS011;1776;53.330;11.498;2024-03-07T12:24:13;18.27;;;12.43;;
3523;SDS011;1776;53.330;11.498;2024-03-07T12:26:40;21.27;;;13.50;;
3523;SDS011;1776;53.330;11.498;2024-03-07T12:29:08;15.83;;;11.90;;
3523;SDS011;1776;53.330;11.498;2024-03-07T12:31:39;19.80;;;11.97;;
3523;SDS011;1776;53.330;11.498;2024-03-07T12:34:05;21.17;;;13.40;;
3523;SDS011;1776;53.330;11.498;2024-03-07T12:36:34;24.40;;;13.00;;
3523;SDS011;1776;53.330;11.498;2024-03-07T12:39:10;21.00;;;12.87;;
3523;SDS011;1776;53.330;11.498;2024-03-07T12:42:00;20.83;;;13.00;;
3523;SDS011;1776;53.330;11.498;2024-03-07T12:44:38;19.97;;;12.70;;
3523;SDS011;1776;53.330;11.498;2024-03-07T12:47:07;20.80;;;13.30;;
3523;SDS011;1776;53.330;11.498;2024-03-07T12:49:34;22.03;;;12.60;;
3523;SDS011;1776;53.330;11.498;2024-03-07T12:52:00;19.93;;;13.00;;
3523;SDS011;1776;53.330;11.498;2024-03-07T12:54:25;19.10;;;11.90;;
3523;SDS011;1776;53.330;11.498;2024-03-07T12:56:52;19.70;;;12.83;;
3523;SDS011;1776;53.330;11.498;2024-03-07T12:59:17;25.03;;;14.97;;
3523;SDS011;1776;53.330;11.498;2024-03-07T13:01:45;26.60;;;15.73;;
3523;SDS011;1776;53.330;11.498;2024-03-07T13:04:12;26.60;;;16.40;;
3523;SDS011;1776;53.330;11.498;2024-03-07T13:06:39;24.50;;;15.10;;
3523;SDS011;1776;53.330;11.498;2024-03-07T13:09:08;29.87;;;15.13;;
3523;SDS011;1776;53.330;11.498;2024-03-07T13:11:35;21.90;;;14.50;;
3523;SDS011;1776;53.330;11.498;2024-03-07T13:14:05;22.23;;;14.37;;
3523;SDS011;1776;53.330;11.498;2024-03-07T13:16:32;19.03;;;13.23;;
3523;SDS011;1776;53.330;11.498;2024-03-07T13:18:57;22.20;;;14.10;;
3523;SDS011;1776;53.330;11.498;2024-03-07T13:21:22;28.73;;;16.43;;
3523;SDS011;1776;53.330;11.498;2024-03-07T13:23:48;29.30;;;17.30;;
3523;SDS011;1776;53.330;11.498;2024-03-07T13:26:15;32.63;;;16.20;;
3523;SDS011;1776;53.330;11.498;2024-03-07T13:28:45;33.57;;;18.40;;
3523;SDS011;1776;53.330;11.498;2024-03-07T13:31:12;38.90;;;19.93;;
3523;SDS011;1776;53.330;11.498;2024-03-07T13:33:37;36.57;;;21.17;;
3523;SDS011;1776;53.330;11.498;2024-03-07T13:36:03;42.73;;;21.67;;
3523;SDS011;1776;53.330;11.498;2024-03-07T13:38:29;36.47;;;21.70;;
3523;SDS011;1776;53.330;11.498;2024-03-07T13:40:54;35.33;;;21.20;;
3523;SDS011;1776;53.330;11.498;2024-03-07T13:43:22;35.63;;;21.50;;
3523;SDS011;1776;53.330;11.498;2024-03-07T13:45:47;34.43;;;21.73;;
3523;SDS011;1776;53.330;11.498;2024-03-07T13:48:13;40.23;;;20.20;;
3523;SDS011;1776;53.330;11.498;2024-03-07T13:50:39;41.43;;;22.87;;
3523;SDS011;1776;53.330;11.498;2024-03-07T13:53:09;41.10;;;22.87;;
3523;SDS011;1776;53.330;11.498;2024-03-07T13:59:07;44.20;;;22.33;;
3523;SDS011;1776;53.330;11.498;2024-03-07T14:01:39;35.40;;;20.53;;
3523;SDS011;1776;53.330;11.498;2024-03-07T14:06:50;32.23;;;17.90;;
3523;SDS011;1776;53.330;11.498;2024-03-07T14:26:46;23.03;;;14.87;;
3523;SDS011;1776;53.330;11.498;2024-03-07T14:29:48;23.20;;;13.57;;
3523;SDS011;1776;53.330;11.498;2024-03-07T14:32:21;22.90;;;14.43;;
3523;SDS011;1776;53.330;11.498;2024-03-07T14:37:38;25.00;;;13.67;;
3523;SDS011;1776;53.330;11.498;2024-03-07T14:40:15;25.70;;;13.90;;
3523;SDS011;1776;53.330;11.498;2024-03-07T14:42:44;20.60;;;11.90;;
3523;SDS011;1776;53.330;11.498;2024-03-07T14:45:12;19.00;;;11.67;;
3523;SDS011;1776;53.330;11.498;2024-03-07T14:47:44;17.23;;;10.97;;
3523;SDS011;1776;53.330;11.498;2024-03-07T14:50:12;19.90;;;13.73;;
3523;SDS011;1776;53.330;11.498;2024-03-07T14:52:41;22.73;;;12.20;;
3523;SDS011;1776;53.330;11.498;2024-03-07T14:55:07;15.63;;;10.17;;
3523;SDS011;1776;53.330;11.498;2024-03-07T14:57:33;14.67;;;10.77;;
3523;SDS011;1776;53.330;11.498;2024-03-07T14:59:59;14.67;;;10.50;;
3523;SDS011;1776;53.330;11.498;2024-03-07T15:02:24;16.17;;;11.90;;
3523;SDS011;1776;53.330;11.498;2024-03-07T15:04:51;15.60;;;10.60;;
3523;SDS011;1776;53.330;11.498;2024-03-07T15:07:17;17.67;;;11.63;;
3523;SDS011;1776;53.330;11.498;2024-03-07T15:09:47;16.70;;;10.43;;
3523;SDS011;1776;53.330;11.498;2024-03-07T15:12:12;14.13;;;9.70;;
3523;SDS011;1776;53.330;11.498;2024-03-07T15:14:39;13.13;;;9.83;;